Hebron, CT (06248)

9:05 AM EST on February 07, 2016 (GMT -0500)
At Skinner Lane | | Change Station
CLOSE
Current Station
Personal Weather Station
Location: Hebron, CT
Elevation: 640 ft
Nearby Weather Stations

Elev 640 ft 41.68 °N, 72.37 °W | Updated 46 seconds ago

Clear
Clear
32.1 °F
Feels Like 32 °F
N
0.0
Wind Variable Wind from SSW
Gusts 0.0 mph

Today
High -- | Low -- °F
--% Chance of Precip.
Yesterday
High -- | Low -- °F
Precip. -- in
Pressure 30.20 in
Visibility 8.0 miles
Clouds Clear
Windchill 32 °F
Dew Point 23 °F
Humidity 70%
Rainfall 0.00 in
Snow Depth Not available.
6:55 AM 5:12 PM
Waning Crescent, 1% visible
METAR KIJD 071352Z AUTO 00000KT 8SM CLR M06/M08 A3019 RMK AO2 SLP225 I1001 T10561078
Pressure 30.20 in
Visibility 8.0 miles
Clouds Clear
Windchill 32 °F
Dew Point 23 °F
Humidity 70%
Rainfall 0.00 in
Snow Depth Not available.
6:55 AM 5:12 PM
Waning Crescent, 1% visible
METAR KIJD 071352Z AUTO 00000KT 8SM CLR M06/M08 A3019 RMK AO2 SLP225 I1001 T10561078

10-Day Weather Forecast

Almanac

Astronomy

Feb. 07, 2016 Rise Set
Actual Time
Civil Twilight
Nautical Twilight
Astronomical Twilight
Moon
Length of Visible Light
Length of Day
Tomorrow will be .
, % of the Moon is Illuminated

Today's Extremes

State Highs State Lows

Community

WunderPhotos

Upload Photos

1,891,204 photos uploaded!

WunderBlog® & News

Nearby

Air Quality

  Air Quality AQ Index Pollutant
Not available.

Snow Depth

Station Depth Elevation

Earthquake Activity

City Distance Mag. Time & Date
Minimum magnitude displayed is 2.5.

Coastal Water Temperatures

Place Temperature

Stations

Nearby Weather Stations

Station Location Temp. Windchill Dew Point Humidity Wind Precip. Elev Updated Type
                   

Watches & Warnings

There are currently no watches in effect.